sensor_id;sensor_type;location;lat;lon;timestamp;temperature;humidity
28524;DHT22;15734;50.904;6.922;2023-04-28T00:00:56;12.40;99.90
28524;DHT22;15734;50.904;6.922;2023-04-28T00:03:21;12.30;99.90
28524;DHT22;15734;50.904;6.922;2023-04-28T00:05:47;12.40;99.90
28524;DHT22;15734;50.904;6.922;2023-04-28T00:08:13;12.40;99.90
28524;DHT22;15734;50.904;6.922;2023-04-28T00:10:39;12.30;99.90
28524;DHT22;15734;50.904;6.922;2023-04-28T00:13:04;12.30;99.90
28524;DHT22;15734;50.904;6.922;2023-04-28T00:15:30;12.30;99.90
28524;DHT22;15734;50.904;6.922;2023-04-28T00:17:55;12.30;99.90
28524;DHT22;15734;50.904;6.922;2023-04-28T00:20:21;12.30;99.90
28524;DHT22;15734;50.904;6.922;2023-04-28T00:22:46;12.30;99.90
28524;DHT22;15734;50.904;6.922;2023-04-28T00:25:13;12.30;99.90
28524;DHT22;15734;50.904;6.922;2023-04-28T00:27:39;12.30;99.90
28524;DHT22;15734;50.904;6.922;2023-04-28T00:30:05;12.30;99.90
28524;DHT22;15734;50.904;6.922;2023-04-28T00:32:31;12.30;99.90
28524;DHT22;15734;50.904;6.922;2023-04-28T00:34:56;12.20;99.90
28524;DHT22;15734;50.904;6.922;2023-04-28T00:37:22;12.20;99.90
28524;DHT22;15734;50.904;6.922;2023-04-28T00:39:47;12.20;99.90
28524;DHT22;15734;50.904;6.922;2023-04-28T00:42:16;12.20;99.90
28524;DHT22;15734;50.904;6.922;2023-04-28T00:44:41;12.20;99.90
28524;DHT22;15734;50.904;6.922;2023-04-28T00:47:10;12.20;99.90
28524;DHT22;15734;50.904;6.922;2023-04-28T00:49:36;12.20;99.90
28524;DHT22;15734;50.904;6.922;2023-04-28T00:52:05;12.10;99.90
28524;DHT22;15734;50.904;6.922;2023-04-28T00:54:34;12.10;99.90
28524;DHT22;15734;50.904;6.922;2023-04-28T00:57:00;12.10;99.90
28524;DHT22;15734;50.904;6.922;2023-04-28T00:59:27;12.10;99.90
28524;DHT22;15734;50.904;6.922;2023-04-28T01:01:53;12.00;99.90
28524;DHT22;15734;50.904;6.922;2023-04-28T01:04:19;12.10;99.90
28524;DHT22;15734;50.904;6.922;2023-04-28T01:06:47;12.10;99.90
28524;DHT22;15734;50.904;6.922;2023-04-28T01:09:13;12.10;99.90
28524;DHT22;15734;50.904;6.922;2023-04-28T01:11:38;12.10;99.90
28524;DHT22;15734;50.904;6.922;2023-04-28T01:14:04;12.10;99.90
28524;DHT22;15734;50.904;6.922;2023-04-28T01:16:29;12.10;99.90
28524;DHT22;15734;50.904;6.922;2023-04-28T01:18:57;12.10;99.90
28524;DHT22;15734;50.904;6.922;2023-04-28T01:21:33;12.10;99.90
28524;DHT22;15734;50.904;6.922;2023-04-28T01:23:59;12.00;99.90
28524;DHT22;15734;50.904;6.922;2023-04-28T01:26:25;11.90;99.90
28524;DHT22;15734;50.904;6.922;2023-04-28T01:28:50;11.80;99.90
28524;DHT22;15734;50.904;6.922;2023-04-28T01:31:16;11.70;99.90
28524;DHT22;15734;50.904;6.922;2023-04-28T01:33:42;11.60;99.90
28524;DHT22;15734;50.904;6.922;2023-04-28T01:36:07;11.50;99.90
28524;DHT22;15734;50.904;6.922;2023-04-28T01:38:33;11.40;99.90
28524;DHT22;15734;50.904;6.922;2023-04-28T01:40:59;11.40;99.90
28524;DHT22;15734;50.904;6.922;2023-04-28T01:43:27;11.40;99.90
28524;DHT22;15734;50.904;6.922;2023-04-28T01:45:52;11.40;99.90
28524;DHT22;15734;50.904;6.922;2023-04-28T01:48:18;11.30;99.90
28524;DHT22;15734;50.904;6.922;2023-04-28T01:50:43;11.30;99.90
28524;DHT22;15734;50.904;6.922;2023-04-28T01:53:09;11.20;99.90
28524;DHT22;15734;50.904;6.922;2023-04-28T01:55:34;11.20;99.90
28524;DHT22;15734;50.904;6.922;2023-04-28T01:58:00;11.10;99.90
28524;DHT22;15734;50.904;6.922;2023-04-28T02:00:25;11.10;99.90
28524;DHT22;15734;50.904;6.922;2023-04-28T02:02:51;11.10;99.90
28524;DHT22;15734;50.904;6.922;2023-04-28T02:05:17;11.10;99.90
28524;DHT22;15734;50.904;6.922;2023-04-28T02:07:42;11.10;99.90
28524;DHT22;15734;50.904;6.922;2023-04-28T02:10:08;11.00;99.90
28524;DHT22;15734;50.904;6.922;2023-04-28T02:12:34;10.90;99.90
28524;DHT22;15734;50.904;6.922;2023-04-28T02:14:59;10.80;99.90
28524;DHT22;15734;50.904;6.922;2023-04-28T02:17:25;10.80;99.90
28524;DHT22;15734;50.904;6.922;2023-04-28T02:19:54;10.80;99.90
28524;DHT22;15734;50.904;6.922;2023-04-28T02:22:21;10.80;99.90
28524;DHT22;15734;50.904;6.922;2023-04-28T02:24:47;10.80;99.90
28524;DHT22;15734;50.904;6.922;2023-04-28T02:27:12;10.80;99.90
28524;DHT22;15734;50.904;6.922;2023-04-28T02:29:38;10.90;99.90
28524;DHT22;15734;50.904;6.922;2023-04-28T02:32:03;10.90;99.90
28524;DHT22;15734;50.904;6.922;2023-04-28T02:34:29;10.90;99.90
28524;DHT22;15734;50.904;6.922;2023-04-28T02:36:55;10.90;99.90
28524;DHT22;15734;50.904;6.922;2023-04-28T02:39:20;11.00;99.90
28524;DHT22;15734;50.904;6.922;2023-04-28T02:41:47;11.00;99.90
28524;DHT22;15734;50.904;6.922;2023-04-28T02:44:12;11.10;99.90
28524;DHT22;15734;50.904;6.922;2023-04-28T02:46:38;11.00;99.90
28524;DHT22;15734;50.904;6.922;2023-04-28T02:49:03;11.10;99.90
28524;DHT22;15734;50.904;6.922;2023-04-28T02:51:29;11.00;99.90
28524;DHT22;15734;50.904;6.922;2023-04-28T02:53:55;10.80;99.90
28524;DHT22;15734;50.904;6.922;2023-04-28T02:56:20;10.80;99.90
28524;DHT22;15734;50.904;6.922;2023-04-28T02:58:46;10.80;99.90
28524;DHT22;15734;50.904;6.922;2023-04-28T03:01:11;10.70;99.90
28524;DHT22;15734;50.904;6.922;2023-04-28T03:03:37;10.70;99.90
28524;DHT22;15734;50.904;6.922;2023-04-28T03:06:03;10.70;99.90
28524;DHT22;15734;50.904;6.922;2023-04-28T03:08:28;10.70;99.90
28524;DHT22;15734;50.904;6.922;2023-04-28T03:10:54;10.70;99.90
28524;DHT22;15734;50.904;6.922;2023-04-28T03:13:19;10.70;99.90
28524;DHT22;15734;50.904;6.922;2023-04-28T03:15:45;10.70;99.90
28524;DHT22;15734;50.904;6.922;2023-04-28T03:18:11;10.70;99.90
28524;DHT22;15734;50.904;6.922;2023-04-28T03:20:36;10.70;99.90
28524;DHT22;15734;50.904;6.922;2023-04-28T03:23:02;10.70;99.90
28524;DHT22;15734;50.904;6.922;2023-04-28T03:25:28;10.70;99.90
28524;DHT22;15734;50.904;6.922;2023-04-28T03:27:53;10.70;99.90
28524;DHT22;15734;50.904;6.922;2023-04-28T03:30:19;10.70;99.90
28524;DHT22;15734;50.904;6.922;2023-04-28T03:32:44;10.70;99.90
28524;DHT22;15734;50.904;6.922;2023-04-28T03:35:10;10.70;99.90
28524;DHT22;15734;50.904;6.922;2023-04-28T03:37:35;10.80;99.90
28524;DHT22;15734;50.904;6.922;2023-04-28T03:40:01;10.90;99.90
28524;DHT22;15734;50.904;6.922;2023-04-28T03:42:27;10.90;99.90
28524;DHT22;15734;50.904;6.922;2023-04-28T03:44:53;10.90;99.90
28524;DHT22;15734;50.904;6.922;2023-04-28T03:47:18;10.90;99.90
28524;DHT22;15734;50.904;6.922;2023-04-28T03:49:44;10.90;99.90
28524;DHT22;15734;50.904;6.922;2023-04-28T03:52:09;10.90;99.90
28524;DHT22;15734;50.904;6.922;2023-04-28T03:54:35;10.80;99.90
28524;DHT22;15734;50.904;6.922;2023-04-28T03:57:00;10.80;99.90
28524;DHT22;15734;50.904;6.922;2023-04-28T03:59:26;10.80;99.90
28524;DHT22;15734;50.904;6.922;2023-04-28T04:01:52;10.80;99.90
28524;DHT22;15734;50.904;6.922;2023-04-28T04:04:17;10.80;99.90
28524;DHT22;15734;50.904;6.922;2023-04-28T04:06:43;10.80;99.90
28524;DHT22;15734;50.904;6.922;2023-04-28T04:09:09;10.80;99.90
28524;DHT22;15734;50.904;6.922;2023-04-28T04:11:34;10.70;99.90
28524;DHT22;15734;50.904;6.922;2023-04-28T04:14:00;10.60;99.90
28524;DHT22;15734;50.904;6.922;2023-04-28T04:16:25;10.70;99.90
28524;DHT22;15734;50.904;6.922;2023-04-28T04:18:51;10.60;99.90
28524;DHT22;15734;50.904;6.922;2023-04-28T04:21:16;10.60;99.90
28524;DHT22;15734;50.904;6.922;2023-04-28T04:23:42;10.60;99.90
28524;DHT22;15734;50.904;6.922;2023-04-28T04:26:07;10.50;99.90
28524;DHT22;15734;50.904;6.922;2023-04-28T04:28:33;10.60;99.90
28524;DHT22;15734;50.904;6.922;2023-04-28T04:30:58;10.70;99.90
28524;DHT22;15734;50.904;6.922;2023-04-28T04:33:24;10.70;99.90
28524;DHT22;15734;50.904;6.922;2023-04-28T04:35:49;10.70;99.90
28524;DHT22;15734;50.904;6.922;2023-04-28T04:38:15;10.70;99.90
28524;DHT22;15734;50.904;6.922;2023-04-28T04:40:40;10.70;99.90
28524;DHT22;15734;50.904;6.922;2023-04-28T04:43:06;10.60;99.90
28524;DHT22;15734;50.904;6.922;2023-04-28T04:45:32;10.60;99.90
28524;DHT22;15734;50.904;6.922;2023-04-28T04:47:57;10.70;99.90
28524;DHT22;15734;50.904;6.922;2023-04-28T04:50:23;10.60;99.90
28524;DHT22;15734;50.904;6.922;2023-04-28T04:52:49;10.60;99.90
28524;DHT22;15734;50.904;6.922;2023-04-28T04:55:15;10.60;99.90
28524;DHT22;15734;50.904;6.922;2023-04-28T04:57:40;10.70;99.90
28524;DHT22;15734;50.904;6.922;2023-04-28T05:00:06;10.70;99.90
28524;DHT22;15734;50.904;6.922;2023-04-28T05:02:32;10.70;99.90
28524;DHT22;15734;50.904;6.922;2023-04-28T05:04:58;10.70;99.90
28524;DHT22;15734;50.904;6.922;2023-04-28T05:07:24;10.70;99.90
28524;DHT22;15734;50.904;6.922;2023-04-28T05:09:50;10.70;99.90
28524;DHT22;15734;50.904;6.922;2023-04-28T05:12:16;10.70;99.90
28524;DHT22;15734;50.904;6.922;2023-04-28T05:14:41;10.70;99.90
28524;DHT22;15734;50.904;6.922;2023-04-28T05:17:07;10.70;99.90
28524;DHT22;15734;50.904;6.922;2023-04-28T05:19:33;10.70;99.90
28524;DHT22;15734;50.904;6.922;2023-04-28T05:21:58;10.80;99.90
28524;DHT22;15734;50.904;6.922;2023-04-28T05:24:25;10.80;99.90
28524;DHT22;15734;50.904;6.922;2023-04-28T05:26:51;10.80;99.90
28524;DHT22;15734;50.904;6.922;2023-04-28T05:29:16;10.70;99.90
28524;DHT22;15734;50.904;6.922;2023-04-28T05:31:42;10.80;99.90
28524;DHT22;15734;50.904;6.922;2023-04-28T05:34:07;10.70;99.90
28524;DHT22;15734;50.904;6.922;2023-04-28T05:36:33;10.80;99.90
28524;DHT22;15734;50.904;6.922;2023-04-28T05:38:58;10.80;99.90
28524;DHT22;15734;50.904;6.922;2023-04-28T05:41:24;10.90;99.90
28524;DHT22;15734;50.904;6.922;2023-04-28T05:43:50;10.90;99.90
28524;DHT22;15734;50.904;6.922;2023-04-28T05:46:16;10.90;99.90
28524;DHT22;15734;50.904;6.922;2023-04-28T05:48:42;10.90;99.90
28524;DHT22;15734;50.904;6.922;2023-04-28T05:51:07;10.90;99.90
28524;DHT22;15734;50.904;6.922;2023-04-28T05:53:33;10.80;99.90
28524;DHT22;15734;50.904;6.922;2023-04-28T05:55:58;10.80;99.90
28524;DHT22;15734;50.904;6.922;2023-04-28T05:58:24;10.80;99.90
28524;DHT22;15734;50.904;6.922;2023-04-28T06:00:50;10.90;99.90
28524;DHT22;15734;50.904;6.922;2023-04-28T06:03:15;10.90;99.90
28524;DHT22;15734;50.904;6.922;2023-04-28T06:05:43;11.00;99.90
28524;DHT22;15734;50.904;6.922;2023-04-28T06:08:09;11.00;99.90
28524;DHT22;15734;50.904;6.922;2023-04-28T06:10:34;11.10;99.90
28524;DHT22;15734;50.904;6.922;2023-04-28T06:13:00;11.10;99.90
28524;DHT22;15734;50.904;6.922;2023-04-28T06:15:26;11.10;99.90
28524;DHT22;15734;50.904;6.922;2023-04-28T06:17:52;11.10;99.90
28524;DHT22;15734;50.904;6.922;2023-04-28T06:20:18;11.20;99.90
28524;DHT22;15734;50.904;6.922;2023-04-28T06:22:44;11.20;99.90
28524;DHT22;15734;50.904;6.922;2023-04-28T06:25:10;11.20;99.90
28524;DHT22;15734;50.904;6.922;2023-04-28T06:27:36;11.20;99.90
28524;DHT22;15734;50.904;6.922;2023-04-28T06:30:01;11.20;99.90
28524;DHT22;15734;50.904;6.922;2023-04-28T06:32:27;11.20;99.90
28524;DHT22;15734;50.904;6.922;2023-04-28T06:34:52;11.10;99.90
28524;DHT22;15734;50.904;6.922;2023-04-28T06:37:18;11.20;99.90
28524;DHT22;15734;50.904;6.922;2023-04-28T06:39:43;11.30;99.90
28524;DHT22;15734;50.904;6.922;2023-04-28T06:42:09;11.30;99.90
28524;DHT22;15734;50.904;6.922;2023-04-28T06:44:34;11.40;99.90
28524;DHT22;15734;50.904;6.922;2023-04-28T06:47:00;11.50;99.90
28524;DHT22;15734;50.904;6.922;2023-04-28T06:49:26;11.50;99.90
28524;DHT22;15734;50.904;6.922;2023-04-28T06:51:51;11.60;99.90
28524;DHT22;15734;50.904;6.922;2023-04-28T06:54:17;11.70;99.90
28524;DHT22;15734;50.904;6.922;2023-04-28T06:56:42;11.80;99.90
28524;DHT22;15734;50.904;6.922;2023-04-28T06:59:08;11.90;99.90
28524;DHT22;15734;50.904;6.922;2023-04-28T07:01:33;12.00;99.90
28524;DHT22;15734;50.904;6.922;2023-04-28T07:03:59;12.10;99.90
28524;DHT22;15734;50.904;6.922;2023-04-28T07:06:25;12.20;99.90
28524;DHT22;15734;50.904;6.922;2023-04-28T07:08:52;12.20;99.90
28524;DHT22;15734;50.904;6.922;2023-04-28T07:11:17;12.20;99.90
28524;DHT22;15734;50.904;6.922;2023-04-28T07:13:43;12.30;99.90
28524;DHT22;15734;50.904;6.922;2023-04-28T07:16:13;12.40;99.90
28524;DHT22;15734;50.904;6.922;2023-04-28T07:18:39;12.30;99.90
28524;DHT22;15734;50.904;6.922;2023-04-28T07:21:04;12.40;99.90
28524;DHT22;15734;50.904;6.922;2023-04-28T07:23:30;12.40;99.90
28524;DHT22;15734;50.904;6.922;2023-04-28T07:25:56;12.30;99.90
28524;DHT22;15734;50.904;6.922;2023-04-28T07:28:22;12.40;99.90
28524;DHT22;15734;50.904;6.922;2023-04-28T07:30:48;12.50;99.90
28524;DHT22;15734;50.904;6.922;2023-04-28T07:33:13;12.50;99.90
28524;DHT22;15734;50.904;6.922;2023-04-28T07:35:39;12.50;99.90
28524;DHT22;15734;50.904;6.922;2023-04-28T07:38:04;12.60;99.90
28524;DHT22;15734;50.904;6.922;2023-04-28T07:40:30;12.70;99.90
28524;DHT22;15734;50.904;6.922;2023-04-28T07:42:57;12.80;99.90
28524;DHT22;15734;50.904;6.922;2023-04-28T07:45:22;12.90;99.90
28524;DHT22;15734;50.904;6.922;2023-04-28T07:47:48;12.90;99.90
28524;DHT22;15734;50.904;6.922;2023-04-28T07:50:13;13.00;99.90
28524;DHT22;15734;50.904;6.922;2023-04-28T07:52:40;13.10;99.90
28524;DHT22;15734;50.904;6.922;2023-04-28T07:55:06;13.10;99.90
28524;DHT22;15734;50.904;6.922;2023-04-28T07:57:31;13.20;99.90
28524;DHT22;15734;50.904;6.922;2023-04-28T07:59:57;13.40;99.90
28524;DHT22;15734;50.904;6.922;2023-04-28T08:02:22;13.40;99.90
28524;DHT22;15734;50.904;6.922;2023-04-28T08:04:48;13.50;99.90
28524;DHT22;15734;50.904;6.922;2023-04-28T08:07:14;13.60;99.90
28524;DHT22;15734;50.904;6.922;2023-04-28T08:09:39;13.70;99.90
28524;DHT22;15734;50.904;6.922;2023-04-28T08:12:07;13.90;99.90
28524;DHT22;15734;50.904;6.922;2023-04-28T08:14:32;14.00;99.90
28524;DHT22;15734;50.904;6.922;2023-04-28T08:16:58;14.20;99.90
28524;DHT22;15734;50.904;6.922;2023-04-28T08:19:23;14.20;99.90
28524;DHT22;15734;50.904;6.922;2023-04-28T08:21:49;14.30;99.90
28524;DHT22;15734;50.904;6.922;2023-04-28T08:24:15;14.20;99.90
28524;DHT22;15734;50.904;6.922;2023-04-28T08:26:41;14.30;99.90
28524;DHT22;15734;50.904;6.922;2023-04-28T08:29:06;14.40;99.90
28524;DHT22;15734;50.904;6.922;2023-04-28T08:31:32;14.50;99.90
28524;DHT22;15734;50.904;6.922;2023-04-28T08:33:57;14.50;99.90
28524;DHT22;15734;50.904;6.922;2023-04-28T08:36:24;14.70;99.90
28524;DHT22;15734;50.904;6.922;2023-04-28T08:38:50;14.90;99.90
28524;DHT22;15734;50.904;6.922;2023-04-28T08:41:17;15.00;99.90
28524;DHT22;15734;50.904;6.922;2023-04-28T08:43:43;15.10;99.90
28524;DHT22;15734;50.904;6.922;2023-04-28T08:46:10;15.20;99.90
28524;DHT22;15734;50.904;6.922;2023-04-28T08:48:42;15.20;99.90
28524;DHT22;15734;50.904;6.922;2023-04-28T08:51:13;15.20;99.90
28524;DHT22;15734;50.904;6.922;2023-04-28T08:53:40;15.00;99.90
28524;DHT22;15734;50.904;6.922;2023-04-28T08:56:08;14.90;99.90
28524;DHT22;15734;50.904;6.922;2023-04-28T08:58:35;14.80;99.90
28524;DHT22;15734;50.904;6.922;2023-04-28T09:01:01;14.90;99.90
28524;DHT22;15734;50.904;6.922;2023-04-28T09:03:29;14.70;99.90
28524;DHT22;15734;50.904;6.922;2023-04-28T09:05:55;14.70;99.90
28524;DHT22;15734;50.904;6.922;2023-04-28T09:08:20;14.60;99.90
28524;DHT22;15734;50.904;6.922;2023-04-28T09:10:46;14.60;99.90
28524;DHT22;15734;50.904;6.922;2023-04-28T09:13:24;14.60;99.90
28524;DHT22;15734;50.904;6.922;2023-04-28T09:15:50;14.50;99.90
28524;DHT22;15734;50.904;6.922;2023-04-28T09:18:16;14.40;99.90
28524;DHT22;15734;50.904;6.922;2023-04-28T09:20:41;14.40;99.90
28524;DHT22;15734;50.904;6.922;2023-04-28T09:23:13;14.30;99.90
28524;DHT22;15734;50.904;6.922;2023-04-28T09:25:39;14.20;99.90
28524;DHT22;15734;50.904;6.922;2023-04-28T09:28:20;14.10;99.90
28524;DHT22;15734;50.904;6.922;2023-04-28T09:30:46;14.20;99.90
28524;DHT22;15734;50.904;6.922;2023-04-28T09:33:12;14.20;99.90
28524;DHT22;15734;50.904;6.922;2023-04-28T09:35:38;14.10;99.90
28524;DHT22;15734;50.904;6.922;2023-04-28T09:38:05;14.00;99.90
28524;DHT22;15734;50.904;6.922;2023-04-28T09:40:30;14.00;99.90
28524;DHT22;15734;50.904;6.922;2023-04-28T09:42:56;14.10;99.90
28524;DHT22;15734;50.904;6.922;2023-04-28T09:45:22;14.10;99.90
28524;DHT22;15734;50.904;6.922;2023-04-28T09:47:49;14.20;99.90
28524;DHT22;15734;50.904;6.922;2023-04-28T09:50:15;14.30;99.90
28524;DHT22;15734;50.904;6.922;2023-04-28T09:52:43;14.40;99.90
28524;DHT22;15734;50.904;6.922;2023-04-28T09:55:10;14.30;99.90
28524;DHT22;15734;50.904;6.922;2023-04-28T09:57:37;14.30;99.90
28524;DHT22;15734;50.904;6.922;2023-04-28T10:00:05;14.40;99.90
28524;DHT22;15734;50.904;6.922;2023-04-28T10:02:34;14.30;99.90
28524;DHT22;15734;50.904;6.922;2023-04-28T10:04:59;14.40;99.90
28524;DHT22;15734;50.904;6.922;2023-04-28T10:07:26;14.30;99.90
28524;DHT22;15734;50.904;6.922;2023-04-28T10:09:51;14.20;99.90
28524;DHT22;15734;50.904;6.922;2023-04-28T10:12:22;14.30;99.90
28524;DHT22;15734;50.904;6.922;2023-04-28T10:14:48;14.30;99.90
28524;DHT22;15734;50.904;6.922;2023-04-28T10:17:15;14.20;99.90
28524;DHT22;15734;50.904;6.922;2023-04-28T10:19:43;14.20;99.90
28524;DHT22;15734;50.904;6.922;2023-04-28T10:27:45;14.10;99.90
28524;DHT22;15734;50.904;6.922;2023-04-28T10:32:40;14.40;99.90
28524;DHT22;15734;50.904;6.922;2023-04-28T10:38:10;14.70;99.90
28524;DHT22;15734;50.904;6.922;2023-04-28T10:40:37;14.90;99.90
28524;DHT22;15734;50.904;6.922;2023-04-28T10:43:03;15.00;99.90
28524;DHT22;15734;50.904;6.922;2023-04-28T10:48:20;15.00;99.90
28524;DHT22;15734;50.904;6.922;2023-04-28T10:58:41;15.00;99.90
28524;DHT22;15734;50.904;6.922;2023-04-28T11:06:32;15.40;99.90
28524;DHT22;15734;50.904;6.922;2023-04-28T11:11:37;15.80;99.90
28524;DHT22;15734;50.904;6.922;2023-04-28T11:16:57;16.20;99.90
28524;DHT22;15734;50.904;6.922;2023-04-28T11:19:32;16.50;99.90
28524;DHT22;15734;50.904;6.922;2023-04-28T11:22:03;16.70;99.90
28524;DHT22;15734;50.904;6.922;2023-04-28T11:24:29;16.60;99.90
28524;DHT22;15734;50.904;6.922;2023-04-28T11:26:58;17.20;99.90
28524;DHT22;15734;50.904;6.922;2023-04-28T11:31:59;17.70;99.90
28524;DHT22;15734;50.904;6.922;2023-04-28T11:34:25;17.90;99.90
28524;DHT22;15734;50.904;6.922;2023-04-28T11:36:51;18.00;99.90
28524;DHT22;15734;50.904;6.922;2023-04-28T11:39:31;17.90;99.90
28524;DHT22;15734;50.904;6.922;2023-04-28T11:41:58;18.00;99.90
28524;DHT22;15734;50.904;6.922;2023-04-28T11:44:26;18.10;99.90
28524;DHT22;15734;50.904;6.922;2023-04-28T11:46:54;18.00;99.90
28524;DHT22;15734;50.904;6.922;2023-04-28T11:49:23;17.90;99.90
28524;DHT22;15734;50.904;6.922;2023-04-28T11:51:50;17.80;99.90
28524;DHT22;15734;50.904;6.922;2023-04-28T11:54:23;17.40;99.90
28524;DHT22;15734;50.904;6.922;2023-04-28T11:56:50;17.30;99.90
28524;DHT22;15734;50.904;6.922;2023-04-28T11:59:16;17.30;99.90
28524;DHT22;15734;50.904;6.922;2023-04-28T12:01:57;17.60;99.90
28524;DHT22;15734;50.904;6.922;2023-04-28T12:09:39;17.80;99.90
28524;DHT22;15734;50.904;6.922;2023-04-28T12:12:08;17.60;99.90
28524;DHT22;15734;50.904;6.922;2023-04-28T12:14:57;17.70;99.90
28524;DHT22;15734;50.904;6.922;2023-04-28T12:17:25;17.80;99.90
28524;DHT22;15734;50.904;6.922;2023-04-28T12:19:52;17.90;99.90
28524;DHT22;15734;50.904;6.922;2023-04-28T12:22:18;18.10;99.90
28524;DHT22;15734;50.904;6.922;2023-04-28T12:24:43;18.20;99.90
28524;DHT22;15734;50.904;6.922;2023-04-28T12:27:28;18.60;99.90
28524;DHT22;15734;50.904;6.922;2023-04-28T12:29:54;19.40;99.90
28524;DHT22;15734;50.904;6.922;2023-04-28T12:32:39;20.00;99.90
28524;DHT22;15734;50.904;6.922;2023-04-28T12:35:05;20.30;99.90
28524;DHT22;15734;50.904;6.922;2023-04-28T12:37:31;20.40;99.90
28524;DHT22;15734;50.904;6.922;2023-04-28T12:39:57;20.50;99.90
28524;DHT22;15734;50.904;6.922;2023-04-28T12:42:23;20.50;99.90
28524;DHT22;15734;50.904;6.922;2023-04-28T12:44:49;20.10;99.90
28524;DHT22;15734;50.904;6.922;2023-04-28T12:47:15;20.30;99.90
28524;DHT22;15734;50.904;6.922;2023-04-28T12:49:44;20.90;99.90
28524;DHT22;15734;50.904;6.922;2023-04-28T12:52:09;21.40;99.90
28524;DHT22;15734;50.904;6.922;2023-04-28T12:54:35;21.50;99.90
28524;DHT22;15734;50.904;6.922;2023-04-28T12:57:01;21.40;99.90
28524;DHT22;15734;50.904;6.922;2023-04-28T12:59:28;21.50;99.90
28524;DHT22;15734;50.904;6.922;2023-04-28T13:01:53;21.50;99.90
28524;DHT22;15734;50.904;6.922;2023-04-28T13:04:20;21.30;99.90
28524;DHT22;15734;50.904;6.922;2023-04-28T13:06:46;21.30;99.90
28524;DHT22;15734;50.904;6.922;2023-04-28T13:09:13;21.70;99.90
28524;DHT22;15734;50.904;6.922;2023-04-28T13:11:41;22.20;99.90
28524;DHT22;15734;50.904;6.922;2023-04-28T13:14:07;22.00;99.90
28524;DHT22;15734;50.904;6.922;2023-04-28T13:16:33;22.10;99.90
28524;DHT22;15734;50.904;6.922;2023-04-28T13:19:00;22.10;99.90
28524;DHT22;15734;50.904;6.922;2023-04-28T13:21:26;22.00;99.90
28524;DHT22;15734;50.904;6.922;2023-04-28T13:23:56;21.60;99.90
28524;DHT22;15734;50.904;6.922;2023-04-28T13:26:22;21.70;99.90
28524;DHT22;15734;50.904;6.922;2023-04-28T13:28:49;22.10;99.90
28524;DHT22;15734;50.904;6.922;2023-04-28T13:31:15;22.40;99.90
28524;DHT22;15734;50.904;6.922;2023-04-28T13:33:40;22.40;99.90
28524;DHT22;15734;50.904;6.922;2023-04-28T13:36:07;22.20;99.90
28524;DHT22;15734;50.904;6.922;2023-04-28T13:38:34;22.10;99.90
28524;DHT22;15734;50.904;6.922;2023-04-28T13:40:59;22.10;99.90
28524;DHT22;15734;50.904;6.922;2023-04-28T13:43:25;22.20;99.90
28524;DHT22;15734;50.904;6.922;2023-04-28T13:45:51;22.00;99.90
28524;DHT22;15734;50.904;6.922;2023-04-28T13:48:17;22.10;99.90
28524;DHT22;15734;50.904;6.922;2023-04-28T13:50:43;22.20;99.90
28524;DHT22;15734;50.904;6.922;2023-04-28T13:53:08;22.10;99.90
28524;DHT22;15734;50.904;6.922;2023-04-28T13:55:34;22.10;99.90
28524;DHT22;15734;50.904;6.922;2023-04-28T13:58:00;22.20;99.90
28524;DHT22;15734;50.904;6.922;2023-04-28T14:00:29;22.30;99.90
28524;DHT22;15734;50.904;6.922;2023-04-28T14:02:56;22.40;99.90
28524;DHT22;15734;50.904;6.922;2023-04-28T14:05:22;22.50;99.90
28524;DHT22;15734;50.904;6.922;2023-04-28T14:07:48;22.50;99.90
28524;DHT22;15734;50.904;6.922;2023-04-28T14:10:13;22.10;99.90
28524;DHT22;15734;50.904;6.922;2023-04-28T14:12:39;21.60;99.90
28524;DHT22;15734;50.904;6.922;2023-04-28T14:15:05;21.40;99.90
28524;DHT22;15734;50.904;6.922;2023-04-28T14:17:31;21.20;99.90
28524;DHT22;15734;50.904;6.922;2023-04-28T14:19:59;21.10;99.90
28524;DHT22;15734;50.904;6.922;2023-04-28T14:22:26;21.10;99.90
28524;DHT22;15734;50.904;6.922;2023-04-28T14:24:51;21.60;99.90
28524;DHT22;15734;50.904;6.922;2023-04-28T14:27:17;22.00;99.90
28524;DHT22;15734;50.904;6.922;2023-04-28T14:29:43;22.10;99.90
28524;DHT22;15734;50.904;6.922;2023-04-28T14:32:12;21.90;99.90
28524;DHT22;15734;50.904;6.922;2023-04-28T14:34:38;21.90;99.90
28524;DHT22;15734;50.904;6.922;2023-04-28T14:37:05;22.20;99.90
28524;DHT22;15734;50.904;6.922;2023-04-28T14:39:30;22.50;99.90
28524;DHT22;15734;50.904;6.922;2023-04-28T14:41:56;22.70;99.90
28524;DHT22;15734;50.904;6.922;2023-04-28T14:44:22;22.90;99.90
28524;DHT22;15734;50.904;6.922;2023-04-28T14:46:47;22.90;99.90
28524;DHT22;15734;50.904;6.922;2023-04-28T14:49:13;23.00;99.90
28524;DHT22;15734;50.904;6.922;2023-04-28T14:51:38;22.90;99.90
28524;DHT22;15734;50.904;6.922;2023-04-28T14:54:04;22.50;99.90
28524;DHT22;15734;50.904;6.922;2023-04-28T14:56:29;22.30;99.90
28524;DHT22;15734;50.904;6.922;2023-04-28T14:58:55;22.10;99.90
28524;DHT22;15734;50.904;6.922;2023-04-28T15:01:21;22.10;99.90
28524;DHT22;15734;50.904;6.922;2023-04-28T15:03:46;22.30;99.90
28524;DHT22;15734;50.904;6.922;2023-04-28T15:06:12;22.30;99.90
28524;DHT22;15734;50.904;6.922;2023-04-28T15:08:38;22.50;99.90
28524;DHT22;15734;50.904;6.922;2023-04-28T15:11:04;22.60;99.90
28524;DHT22;15734;50.904;6.922;2023-04-28T15:13:30;22.30;99.90
28524;DHT22;15734;50.904;6.922;2023-04-28T15:15:56;21.90;99.90
28524;DHT22;15734;50.904;6.922;2023-04-28T15:18:22;21.90;99.90
28524;DHT22;15734;50.904;6.922;2023-04-28T15:20:50;21.70;99.90
28524;DHT22;15734;50.904;6.922;2023-04-28T15:23:16;21.60;99.90
28524;DHT22;15734;50.904;6.922;2023-04-28T15:25:41;21.60;99.90
28524;DHT22;15734;50.904;6.922;2023-04-28T15:28:07;21.80;99.90
28524;DHT22;15734;50.904;6.922;2023-04-28T15:30:33;21.70;99.90
28524;DHT22;15734;50.904;6.922;2023-04-28T15:32:59;21.50;99.90
28524;DHT22;15734;50.904;6.922;2023-04-28T15:35:24;21.40;99.90
28524;DHT22;15734;50.904;6.922;2023-04-28T15:37:50;21.10;99.90
28524;DHT22;15734;50.904;6.922;2023-04-28T15:40:17;21.10;99.90
28524;DHT22;15734;50.904;6.922;2023-04-28T15:42:44;21.20;99.90
28524;DHT22;15734;50.904;6.922;2023-04-28T15:45:14;21.50;99.90
28524;DHT22;15734;50.904;6.922;2023-04-28T15:47:41;21.50;99.90
28524;DHT22;15734;50.904;6.922;2023-04-28T15:50:08;21.70;99.90
28524;DHT22;15734;50.904;6.922;2023-04-28T15:52:40;21.90;99.90
28524;DHT22;15734;50.904;6.922;2023-04-28T15:55:10;21.30;99.90
28524;DHT22;15734;50.904;6.922;2023-04-28T15:57:36;21.10;99.90
28524;DHT22;15734;50.904;6.922;2023-04-28T16:00:02;20.80;99.90
28524;DHT22;15734;50.904;6.922;2023-04-28T16:02:28;20.70;99.90
28524;DHT22;15734;50.904;6.922;2023-04-28T16:04:53;20.60;99.90